Iowa Falls, IA (50126)

9:07 AM CST on January 20, 2017 (GMT -0600)
Henry Home | | Change Station
Active Advisory: Dense Fog Advisory

Elev 1129 ft 42.53 °N, 93.26 °W | Updated 12 seconds ago

Fog
Fog
34.7 °F
Feels Like 35 °F
N
2.0
Wind Variable Wind from East
Gusts 2.5 mph

Today
High -- | Low -- °F
--% Chance of Precip.
Yesterday
High -- | Low -- °F
Precip. -- in
Pressure 29.61 in
Visibility 0.2 miles
Clouds Overcast 400 ft
Windchill 35 °F
Dew Point 30 °F
Humidity 84%
Rainfall 0.00 in
Snow Depth Not available.
7:37 AM 5:11 PM
Last Quarter, 43% visible
METAR KIFA 201515Z AUTO 10004KT 1/4SM FG OVC004 02/01 A2961 RMK AO2 T00160012
Pressure 29.61 in
Visibility 0.2 miles
Clouds Overcast 400 ft
Windchill 35 °F
Dew Point 30 °F
Humidity 84%
Rainfall 0.00 in
Snow Depth Not available.
7:37 AM 5:11 PM
Last Quarter, 43% visible
METAR KIFA 201515Z AUTO 10004KT 1/4SM FG OVC004 02/01 A2961 RMK AO2 T00160012

Get Your Daily Forecast Email!

Thanks for signing up!

Be on the lookout for a verification email in your inbox.

You'll start receiving the daily forecast at 8 AM.

×

10-Day Weather Forecast

Almanac

Astronomy

Jan. 20, 2017 Rise Set
Actual Time
Civil Twilight
Nautical Twilight
Astronomical Twilight
Moon
Length of Visible Light
Length of Day
Tomorrow will be .
, % of the Moon is Illuminated

Today's Extremes

State Highs State Lows

Community

WunderPhotos

Upload Photos

1,962,540 photos uploaded!

WunderBlog® & News

Nearby

Air Quality

  Air Quality AQ Index Pollutant
Not available.

Snow Depth

Station Depth Elevation

Earthquake Activity

City Distance Mag. Time & Date
Minimum magnitude displayed is 2.5.

Coastal Water Temperatures

Place Temperature

Stations

Nearby Weather Stations

Station Location Temp. Windchill Dew Point Humidity Wind Precip. Elev Updated Type
                   

Watches & Warnings

Dense Fog Advisory
Issued: 3:36 AM CST Jan. 20, 2017 – National Weather Service

... Dense fog advisory remains in effect until 10 am CST this
morning...

* visibility... visibility will remain at one quarter of a mile or
less throughout much of the morning hours today.

* Impacts... driving will be hazardous due to low and changing
visibilities.

Precautionary/preparedness actions...

A dense fog advisory means visibilities will frequently be
reduced to less than one quarter mile. Be especially cautious
near intersections and Railroad crossings. Also be especially
careful if traveling along known school bus routes as buses make
frequent stops. If driving, slow down, use your low beam and fog
headlights, leave plenty of distance ahead of you. Plan on extra
travel time this morning.


Kotenberg